Time;durP1;ratioP1;P1;durP2;ratioP2;P2;SDS_P1;SDS_P2;PMS_P1;PMS_P2;Temp;Humidity;BMP_temperature;BMP_pressure;BME280_temperature;BME280_humidity;BME280_pressure;Samples;Min_cycle;Max_cycle;Signal;HPM_P1;HPM_P2
2022/04/07 00:01:23;;;;;;;1.70;1.20;;;;;;;;;;6262786;22;20395;-92
2022/04/07 00:03:49;;;;;;;0.52;0.40;;;;;;;;;;6263057;22;20018;-92
2022/04/07 00:06:15;;;;;;;1.85;0.70;;;;;;;;;;6262939;22;20054;-93
2022/04/07 00:08:43;;;;;;;4.70;1.20;;;;;;;;;;6263284;22;20522;-93
2022/04/07 00:11:09;;;;;;;1.77;1.00;;;;;;;;;;6263884;22;20008;-93
2022/04/07 00:13:35;;;;;;;3.08;1.15;;;;;;;;;;6265059;22;20062;-93
2022/04/07 00:16:01;;;;;;;0.85;0.75;;;;;;;;;;6265743;22;20054;-93
2022/04/07 00:18:28;;;;;;;1.73;0.90;;;;;;;;;;6264648;22;20042;-93
2022/04/07 00:20:54;;;;;;;4.50;1.42;;;;;;;;;;6264725;22;20021;-93
2022/04/07 00:23:22;;;;;;;9.88;1.05;;;;;;;;;;6275210;22;20045;-93
2022/04/07 00:25:48;;;;;;;7.55;1.33;;;;;;;;;;6266342;22;20022;-94
2022/04/07 00:28:15;;;;;;;4.63;1.75;;;;;;;;;;6265491;22;20023;-93
2022/04/07 00:30:43;;;;;;;0.90;0.70;;;;;;;;;;6265305;22;20425;-93
2022/04/07 00:33:09;;;;;;;2.22;0.73;;;;;;;;;;6265795;22;20050;-93
2022/04/07 00:35:35;;;;;;;3.70;1.60;;;;;;;;;;6265111;22;20444;-93
2022/04/07 00:38:02;;;;;;;2.47;1.40;;;;;;;;;;6263437;22;20441;-92
2022/04/07 00:40:28;;;;;;;1.50;0.93;;;;;;;;;;6262953;22;20022;-93
2022/04/07 00:42:54;;;;;;;4.30;1.33;;;;;;;;;;6264833;22;20106;-93
2022/04/07 00:45:21;;;;;;;3.17;1.30;;;;;;;;;;6267465;22;20345;-95
2022/04/07 00:47:49;;;;;;;12.63;1.65;;;;;;;;;;6264285;22;20011;-94
2022/04/07 00:50:16;;;;;;;1.17;0.65;;;;;;;;;;6264577;22;20019;-93
2022/04/07 00:52:44;;;;;;;3.10;1.27;;;;;;;;;;6265916;22;20015;-94
2022/04/07 00:55:11;;;;;;;5.55;1.92;;;;;;;;;;6266598;22;20505;-94
2022/04/07 00:57:43;;;;;;;3.65;1.85;;;;;;;;;;6270322;22;20018;-95
2022/04/07 01:00:11;;;;;;;3.45;1.63;;;;;;;;;;6269072;22;20498;-94
2022/04/07 01:02:37;;;;;;;2.45;1.52;;;;;;;;;;6266824;22;20015;-94
2022/04/07 01:05:08;;;;;;;2.95;1.40;;;;;;;;;;6268002;22;20051;-94
2022/04/07 01:07:37;;;;;;;2.92;1.83;;;;;;;;;;6267704;22;20094;-94
2022/04/07 01:10:10;;;;;;;3.33;1.50;;;;;;;;;;6268731;22;20094;-93
2022/04/07 01:12:39;;;;;;;1.50;1.02;;;;;;;;;;6269449;22;20011;-95
2022/04/07 01:15:06;;;;;;;4.25;1.63;;;;;;;;;;6269108;22;20015;-94
2022/04/07 01:17:34;;;;;;;2.10;1.33;;;;;;;;;;6266832;22;20023;-93
2022/04/07 01:20:01;;;;;;;3.92;1.40;;;;;;;;;;6266641;22;20067;-94
2022/04/07 01:22:27;;;;;;;1.80;1.58;;;;;;;;;;6267524;22;20019;-93
2022/04/07 01:24:53;;;;;;;2.13;1.02;;;;;;;;;;6267841;22;20057;-93
2022/04/07 01:27:19;;;;;;;1.10;0.80;;;;;;;;;;6266785;22;20015;-93
2022/04/07 01:29:46;;;;;;;6.13;1.10;;;;;;;;;;6266122;22;20022;-93
2022/04/07 01:32:16;;;;;;;6.45;2.20;;;;;;;;;;6267061;22;20094;-94
2022/04/07 01:34:43;;;;;;;2.72;1.27;;;;;;;;;;6266552;22;20023;-93
2022/04/07 01:37:09;;;;;;;4.38;1.45;;;;;;;;;;6265378;22;20436;-93
2022/04/07 01:39:37;;;;;;;2.10;1.42;;;;;;;;;;6265053;22;20015;-93
2022/04/07 01:42:04;;;;;;;9.95;1.60;;;;;;;;;;6264820;22;20023;-93
2022/04/07 01:44:30;;;;;;;4.82;1.63;;;;;;;;;;6264668;22;20026;-92
2022/04/07 01:46:57;;;;;;;1.95;0.95;;;;;;;;;;6266089;22;20076;-93
2022/04/07 01:49:29;;;;;;;7.63;1.60;;;;;;;;;;6267243;22;20026;-94
2022/04/07 01:51:55;;;;;;;3.20;1.67;;;;;;;;;;6270382;22;20015;-95
2022/04/07 01:54:22;;;;;;;3.03;1.40;;;;;;;;;;6267782;22;20066;-94
2022/04/07 01:56:50;;;;;;;1.92;0.57;;;;;;;;;;6267948;22;20015;-93
2022/04/07 01:59:17;;;;;;;2.17;1.13;;;;;;;;;;6266377;22;20067;-94
2022/04/07 02:01:44;;;;;;;1.25;0.60;;;;;;;;;;6266625;22;20026;-94
2022/04/07 02:04:10;;;;;;;1.80;1.00;;;;;;;;;;6267054;22;20019;-94
2022/04/07 02:06:37;;;;;;;0.95;0.82;;;;;;;;;;6267265;22;20007;-93
2022/04/07 02:09:03;;;;;;;2.20;1.00;;;;;;;;;;6266930;22;20039;-93
2022/04/07 02:11:31;;;;;;;4.75;1.38;;;;;;;;;;6266369;22;20033;-93
2022/04/07 02:13:58;;;;;;;3.60;1.30;;;;;;;;;;6265356;22;20026;-93
2022/04/07 02:16:24;;;;;;;5.88;2.17;;;;;;;;;;6264723;22;20326;-92
2022/04/07 02:18:50;;;;;;;7.78;2.47;;;;;;;;;;6264759;22;20026;-93
2022/04/07 02:21:16;;;;;;;4.90;1.00;;;;;;;;;;6264374;22;20420;-93
2022/04/07 02:23:42;;;;;;;3.72;1.38;;;;;;;;;;6264534;22;20020;-93
2022/04/07 02:26:12;;;;;;;4.00;1.13;;;;;;;;;;6263882;22;20041;-93
2022/04/07 02:28:38;;;;;;;6.47;1.90;;;;;;;;;;6264472;22;20023;-92
2022/04/07 02:31:04;;;;;;;2.63;1.08;;;;;;;;;;6264596;22;20015;-92
2022/04/07 02:33:30;;;;;;;4.68;1.30;;;;;;;;;;6265569;22;20098;-92
2022/04/07 02:35:56;;;;;;;6.07;1.23;;;;;;;;;;6265262;22;20026;-93
2022/04/07 02:38:22;;;;;;;1.85;1.10;;;;;;;;;;6266870;22;20027;-93
2022/04/07 02:40:48;;;;;;;5.18;0.93;;;;;;;;;;6266261;22;20026;-93
2022/04/07 02:43:15;;;;;;;2.88;1.77;;;;;;;;;;6266399;22;20015;-93
2022/04/07 02:45:41;;;;;;;3.35;1.25;;;;;;;;;;6265445;22;20090;-93
2022/04/07 02:48:07;;;;;;;2.28;0.95;;;;;;;;;;6264810;22;20015;-94
2022/04/07 02:50:33;;;;;;;2.47;0.93;;;;;;;;;;6264899;22;20084;-93
2022/04/07 02:52:59;;;;;;;3.65;1.30;;;;;;;;;;6265620;22;20018;-93
2022/04/07 02:55:27;;;;;;;3.00;1.10;;;;;;;;;;6265109;22;20015;-93
2022/04/07 02:57:53;;;;;;;3.83;1.05;;;;;;;;;;6264650;22;20025;-92
2022/04/07 03:00:19;;;;;;;7.97;1.75;;;;;;;;;;6265775;22;20039;-94
2022/04/07 03:02:46;;;;;;;9.05;1.85;;;;;;;;;;6267470;22;20022;-94
2022/04/07 03:05:12;;;;;;;9.70;2.03;;;;;;;;;;6269053;22;20038;-94
2022/04/07 03:07:47;;;;;;;10.63;1.35;;;;;;;;;;6275596;22;20011;-95
2022/04/07 03:10:29;;;;;;;1.35;0.63;;;;;;;;;;6275993;22;20045;-95
2022/04/07 03:13:00;;;;;;;3.42;0.85;;;;;;;;;;6274464;22;20021;-95
2022/04/07 03:15:32;;;;;;;3.83;1.60;;;;;;;;;;6275194;22;20015;-94
2022/04/07 03:18:01;;;;;;;0.95;0.45;;;;;;;;;;6247092;22;20023;-95
2022/04/07 03:20:28;;;;;;;1.70;0.60;;;;;;;;;;6268848;22;20089;-94
2022/04/07 03:22:54;;;;;;;6.25;0.93;;;;;;;;;;6268187;22;20050;-94
2022/04/07 03:25:20;;;;;;;2.42;0.88;;;;;;;;;;6240785;22;20013;-93
2022/04/07 03:27:46;;;;;;;3.35;1.35;;;;;;;;;;6265470;22;20019;-94
2022/04/07 03:30:12;;;;;;;5.75;1.15;;;;;;;;;;6265062;22;20069;-94
2022/04/07 03:32:39;;;;;;;2.95;1.42;;;;;;;;;;6264691;22;20336;-94
2022/04/07 03:35:05;;;;;;;2.35;1.13;;;;;;;;;;6265318;22;20026;-94
2022/04/07 03:37:31;;;;;;;1.23;0.75;;;;;;;;;;6265405;22;20333;-93
2022/04/07 03:39:57;;;;;;;6.32;1.40;;;;;;;;;;6265017;22;20023;-94
2022/04/07 03:42:23;;;;;;;1.27;0.60;;;;;;;;;;6263384;22;20019;-92
2022/04/07 03:44:49;;;;;;;1.58;0.57;;;;;;;;;;6264541;22;20028;-92
2022/04/07 03:47:15;;;;;;;2.58;1.05;;;;;;;;;;6263509;22;20067;-93
2022/04/07 03:49:41;;;;;;;1.88;0.98;;;;;;;;;;6264232;22;20015;-94
2022/04/07 03:52:08;;;;;;;5.15;1.65;;;;;;;;;;6264223;22;20015;-93
2022/04/07 03:54:34;;;;;;;8.88;1.92;;;;;;;;;;6264943;22;20019;-93
2022/04/07 03:57:00;;;;;;;4.07;1.50;;;;;;;;;;6264891;22;20019;-94
2022/04/07 03:59:26;;;;;;;5.00;3.17;;;;;;;;;;6264642;22;20510;-94
2022/04/07 04:01:52;;;;;;;5.93;2.13;;;;;;;;;;6264146;22;20411;-94
2022/04/07 04:04:20;;;;;;;7.15;1.83;;;;;;;;;;6263946;22;20051;-93
2022/04/07 04:06:46;;;;;;;11.75;1.90;;;;;;;;;;6264044;22;20483;-94
2022/04/07 04:09:12;;;;;;;5.10;1.45;;;;;;;;;;6263083;22;20047;-93
2022/04/07 04:11:41;;;;;;;9.80;1.75;;;;;;;;;;6264255;22;20090;-93
2022/04/07 04:14:07;;;;;;;15.68;2.58;;;;;;;;;;6264876;22;20026;-93
2022/04/07 04:16:34;;;;;;;9.52;2.85;;;;;;;;;;6265417;22;20026;-94
2022/04/07 04:19:00;;;;;;;6.00;1.52;;;;;;;;;;6265017;22;20027;-94
2022/04/07 04:21:26;;;;;;;15.05;2.47;;;;;;;;;;6265792;22;20065;-94
2022/04/07 04:23:52;;;;;;;4.82;1.25;;;;;;;;;;6264631;22;20453;-93
2022/04/07 04:26:18;;;;;;;9.35;2.03;;;;;;;;;;6265533;22;20011;-93
2022/04/07 04:28:45;;;;;;;4.30;1.48;;;;;;;;;;6265346;22;20037;-94
2022/04/07 04:31:11;;;;;;;9.77;2.60;;;;;;;;;;6264882;22;20067;-94
2022/04/07 04:33:37;;;;;;;20.45;3.15;;;;;;;;;;6265829;22;20011;-93
2022/04/07 04:36:03;;;;;;;8.93;2.90;;;;;;;;;;6264913;22;20023;-93
2022/04/07 04:38:30;;;;;;;10.50;2.15;;;;;;;;;;6268215;22;20042;-95
2022/04/07 04:41:02;;;;;;;1.98;1.25;;;;;;;;;;6273056;22;20019;-94
2022/04/07 04:43:31;;;;;;;5.22;1.05;;;;;;;;;;6268714;22;20017;-95
2022/04/07 04:46:06;;;;;;;10.15;1.80;;;;;;;;;;6269588;22;20069;-95
2022/04/07 04:48:41;;;;;;;5.50;1.55;;;;;;;;;;6273453;22;20062;-95
2022/04/07 04:51:27;;;;;;;7.63;1.50;;;;;;;;;;6301896;22;20082;-95
2022/04/07 04:54:03;;;;;;;6.20;1.98;;;;;;;;;;6298693;22;20019;-96
2022/04/07 04:56:44;;;;;;;3.65;0.80;;;;;;;;;;6298933;22;20043;-95
2022/04/07 04:59:20;;;;;;;6.90;1.88;;;;;;;;;;6276270;22;20019;-95
2022/04/07 05:01:55;;;;;;;11.73;1.40;;;;;;;;;;6253107;22;20051;-95
2022/04/07 05:04:36;;;;;;;;;;;;;;;;;;;;;
2022/04/07 05:07:07;;;;;;;6.15;1.90;;;;;;;;;;6294158;22;20060;-94
2022/04/07 05:09:34;;;;;;;14.55;3.58;;;;;;;;;;6269815;22;20045;-95
2022/04/07 05:12:04;;;;;;;5.10;1.40;;;;;;;;;;6268180;22;20451;-95
2022/04/07 05:14:30;;;;;;;4.15;1.83;;;;;;;;;;6269436;22;20019;-94
2022/04/07 05:16:56;;;;;;;8.75;1.88;;;;;;;;;;6271189;22;20041;-93
2022/04/07 05:19:25;;;;;;;10.20;1.70;;;;;;;;;;6243399;22;20015;-94
2022/04/07 05:21:54;;;;;;;12.77;2.40;;;;;;;;;;6269341;22;20019;-94
2022/04/07 05:24:20;;;;;;;6.43;1.65;;;;;;;;;;6269715;22;20019;-94
2022/04/07 05:26:47;;;;;;;4.10;1.70;;;;;;;;;;6271749;22;20046;-94
2022/04/07 05:29:13;;;;;;;5.05;2.95;;;;;;;;;;6272119;22;20519;-94
2022/04/07 05:31:40;;;;;;;7.00;1.92;;;;;;;;;;6296796;22;20062;-93
2022/04/07 05:34:13;;;;;;;9.68;2.42;;;;;;;;;;6273651;22;20019;-95
2022/04/07 05:36:40;;;;;;;6.00;2.28;;;;;;;;;;6272078;22;20033;-95
2022/04/07 05:39:08;;;;;;;1.85;1.00;;;;;;;;;;6271242;22;20053;-94
2022/04/07 05:41:37;;;;;;;7.63;1.98;;;;;;;;;;6268792;22;20019;-95
2022/04/07 05:44:09;;;;;;;1.70;0.70;;;;;;;;;;6299397;22;20015;-96
2022/04/07 05:46:35;;;;;;;0.82;0.50;;;;;;;;;;6268445;22;20011;-95
2022/04/07 05:49:02;;;;;;;0.45;0.45;;;;;;;;;;6294136;22;20015;-96
2022/04/07 05:51:28;;;;;;;1.65;0.45;;;;;;;;;;6270071;22;20011;-96
2022/04/07 05:53:57;;;;;;;0.50;0.45;;;;;;;;;;6270215;22;20019;-95
2022/04/07 05:56:29;;;;;;;2.77;1.07;;;;;;;;;;6271919;22;20015;-96
2022/04/07 05:58:55;;;;;;;0.40;0.40;;;;;;;;;;6270758;22;20303;-95
2022/04/07 06:01:24;;;;;;;1.35;0.65;;;;;;;;;;6271455;22;20041;-95
2022/04/07 06:03:53;;;;;;;1.63;0.73;;;;;;;;;;6271584;22;20038;-96
2022/04/07 06:06:23;;;;;;;0.93;0.52;;;;;;;;;;6271021;22;20026;-95
2022/04/07 06:08:52;;;;;;;1.65;0.65;;;;;;;;;;6273455;22;20092;-95
2022/04/07 06:11:18;;;;;;;0.50;0.50;;;;;;;;;;6272543;22;20340;-96
2022/04/07 06:13:47;;;;;;;0.70;0.63;;;;;;;;;;6270539;22;20094;-96
2022/04/07 06:16:14;;;;;;;1.13;0.40;;;;;;;;;;6270914;22;20444;-95
2022/04/07 06:18:40;;;;;;;1.02;0.60;;;;;;;;;;6271088;22;20027;-96
2022/04/07 06:21:06;;;;;;;1.25;0.52;;;;;;;;;;6270378;22;20018;-95
2022/04/07 06:23:35;;;;;;;0.98;0.70;;;;;;;;;;6270309;22;20019;-95
2022/04/07 06:26:01;;;;;;;3.17;0.73;;;;;;;;;;6270874;22;20011;-96
2022/04/07 06:28:30;;;;;;;1.58;0.60;;;;;;;;;;6270656;22;20084;-95
2022/04/07 06:31:01;;;;;;;1.65;0.68;;;;;;;;;;6271253;22;20023;-96
2022/04/07 06:33:28;;;;;;;9.43;1.00;;;;;;;;;;6272697;22;20019;-95
2022/04/07 06:35:55;;;;;;;0.55;0.40;;;;;;;;;;6271204;22;20011;-96
2022/04/07 06:38:21;;;;;;;0.40;0.40;;;;;;;;;;6271296;22;20030;-95
2022/04/07 06:40:50;;;;;;;0.30;0.30;;;;;;;;;;6272979;22;20019;-95
2022/04/07 06:43:19;;;;;;;1.65;0.30;;;;;;;;;;6271989;22;20011;-96
2022/04/07 06:45:48;;;;;;;0.43;0.22;;;;;;;;;;6271700;22;20433;-95
2022/04/07 06:48:14;;;;;;;3.92;1.38;;;;;;;;;;6272220;22;20437;-96
2022/04/07 06:50:45;;;;;;;0.30;0.30;;;;;;;;;;6273245;22;20038;-96
2022/04/07 06:53:20;;;;;;;4.95;0.40;;;;;;;;;;6274249;22;20026;-95
2022/04/07 06:55:52;;;;;;;0.45;0.45;;;;;;;;;;6248051;22;20011;-96
2022/04/07 06:58:21;;;;;;;0.40;0.40;;;;;;;;;;6274852;22;20023;-96
2022/04/07 07:00:54;;;;;;;2.95;0.57;;;;;;;;;;6274326;22;20019;-96
2022/04/07 07:03:20;;;;;;;1.65;0.50;;;;;;;;;;6271389;22;20050;-94
2022/04/07 07:05:46;;;;;;;0.77;0.40;;;;;;;;;;6271160;22;20019;-96
2022/04/07 07:08:22;;;;;;;0.32;0.32;;;;;;;;;;6271066;22;20144;-95
2022/04/07 07:10:57;;;;;;;0.60;0.60;;;;;;;;;;6275728;22;20049;-95
2022/04/07 07:13:26;;;;;;;0.40;0.40;;;;;;;;;;6274374;22;20047;-96
2022/04/07 07:16:03;;;;;;;0.38;0.38;;;;;;;;;;6299057;22;20015;-96
2022/04/07 07:18:30;;;;;;;2.35;0.65;;;;;;;;;;6273294;22;20022;-95
2022/04/07 07:21:08;;;;;;;0.47;0.47;;;;;;;;;;6250993;22;20015;-94
2022/04/07 07:23:40;;;;;;;1.08;0.63;;;;;;;;;;6274297;22;20015;-96
2022/04/07 07:26:08;;;;;;;2.22;0.70;;;;;;;;;;6268729;22;20025;-93
2022/04/07 07:28:34;;;;;;;0.70;0.60;;;;;;;;;;6269001;22;20012;-94
2022/04/07 07:31:00;;;;;;;1.08;0.70;;;;;;;;;;6270059;22;20504;-95
2022/04/07 07:33:26;;;;;;;0.77;0.52;;;;;;;;;;6266967;22;20021;-92
2022/04/07 07:35:52;;;;;;;1.38;0.70;;;;;;;;;;6264028;22;20314;-91
2022/04/07 07:38:18;;;;;;;3.70;0.93;;;;;;;;;;6264554;22;20098;-92
2022/04/07 07:40:44;;;;;;;2.72;1.13;;;;;;;;;;6264621;22;20011;-93
2022/04/07 07:43:10;;;;;;;0.80;0.45;;;;;;;;;;6264782;22;20073;-92
2022/04/07 07:45:36;;;;;;;1.00;0.75;;;;;;;;;;6263166;22;20011;-92
2022/04/07 07:48:03;;;;;;;0.95;0.55;;;;;;;;;;6264336;22;20022;-91
2022/04/07 07:50:29;;;;;;;0.38;0.30;;;;;;;;;;6263572;22;20441;-92
2022/04/07 07:52:55;;;;;;;10.27;1.10;;;;;;;;;;6263414;22;20030;-92
2022/04/07 07:55:21;;;;;;;1.70;0.50;;;;;;;;;;6263754;22;20058;-91
2022/04/07 07:57:47;;;;;;;3.20;0.80;;;;;;;;;;6262960;22;20017;-91
2022/04/07 08:00:16;;;;;;;0.77;0.60;;;;;;;;;;6263234;22;20042;-91
2022/04/07 08:02:43;;;;;;;1.27;0.75;;;;;;;;;;6263016;22;20023;-91
2022/04/07 08:05:09;;;;;;;2.33;0.50;;;;;;;;;;6263523;22;20038;-91
2022/04/07 08:07:38;;;;;;;0.30;0.30;;;;;;;;;;6262813;22;20475;-92
2022/04/07 08:10:05;;;;;;;1.25;0.57;;;;;;;;;;6262417;22;20015;-92
2022/04/07 08:12:31;;;;;;;0.32;0.32;;;;;;;;;;6263316;22;20063;-91
2022/04/07 08:14:57;;;;;;;1.70;0.60;;;;;;;;;;6262958;22;20019;-91
2022/04/07 08:17:23;;;;;;;1.35;0.68;;;;;;;;;;6262453;22;20022;-92
2022/04/07 08:19:49;;;;;;;1.75;0.65;;;;;;;;;;6263602;22;20019;-92
2022/04/07 08:22:16;;;;;;;1.08;0.40;;;;;;;;;;6263847;22;20015;-92
2022/04/07 08:24:42;;;;;;;0.70;0.60;;;;;;;;;;6263105;22;20017;-92
2022/04/07 08:27:08;;;;;;;0.90;0.52;;;;;;;;;;6262729;22;20047;-89
2022/04/07 08:29:34;;;;;;;3.20;1.00;;;;;;;;;;6260700;22;20019;-90
2022/04/07 08:32:00;;;;;;;0.60;0.60;;;;;;;;;;6261041;22;20499;-90
2022/04/07 08:34:26;;;;;;;0.73;0.50;;;;;;;;;;6260107;22;20026;-90
2022/04/07 08:36:53;;;;;;;1.80;0.70;;;;;;;;;;6260071;22;20019;-90
2022/04/07 08:39:19;;;;;;;0.40;0.40;;;;;;;;;;6259444;22;20424;-89
2022/04/07 08:41:47;;;;;;;1.02;0.70;;;;;;;;;;6260230;22;20050;-89
2022/04/07 08:44:18;;;;;;;2.45;0.63;;;;;;;;;;6260200;22;20019;-90
2022/04/07 08:46:53;;;;;;;3.78;0.73;;;;;;;;;;6260826;22;20019;-90
2022/04/07 08:49:21;;;;;;;0.30;0.30;;;;;;;;;;6260807;22;20016;-89
2022/04/07 08:51:48;;;;;;;0.82;0.60;;;;;;;;;;6260899;22;20019;-89
2022/04/07 08:54:14;;;;;;;0.73;0.50;;;;;;;;;;6260178;22;20019;-90
2022/04/07 08:56:40;;;;;;;1.98;0.57;;;;;;;;;;6262538;22;20026;-89
2022/04/07 08:59:06;;;;;;;2.05;0.65;;;;;;;;;;6290999;22;20015;-93
2022/04/07 09:01:32;;;;;;;2.70;2.35;;;;;;;;;;6262930;22;20066;-86
2022/04/07 09:03:58;;;;;;;0.43;0.40;;;;;;;;;;6263919;22;20018;-94
2022/04/07 09:06:29;;;;;;;1.17;0.50;;;;;;;;;;6265119;22;20011;-90
2022/04/07 09:08:55;;;;;;;0.90;0.65;;;;;;;;;;6261100;22;20018;-90
2022/04/07 09:11:21;;;;;;;0.38;0.30;;;;;;;;;;6262987;22;20404;-88
2022/04/07 09:13:49;;;;;;;2.28;0.40;;;;;;;;;;6262050;22;20022;-92
2022/04/07 09:16:20;;;;;;;3.40;2.25;;;;;;;;;;6263318;22;20145;-93
2022/04/07 09:18:49;;;;;;;2.17;0.65;;;;;;;;;;6262370;22;20019;-89
2022/04/07 09:21:26;;;;;;;0.50;0.50;;;;;;;;;;6263371;22;20043;-92
2022/04/07 09:23:54;;;;;;;2.30;1.48;;;;;;;;;;6264884;22;20015;-91
2022/04/07 09:26:20;;;;;;;3.03;0.40;;;;;;;;;;6260730;22;20015;-92
2022/04/07 09:28:46;;;;;;;5.47;0.68;;;;;;;;;;6262731;22;20019;-90
2022/04/07 09:31:15;;;;;;;2.15;0.82;;;;;;;;;;6263230;22;20457;-90
2022/04/07 09:33:41;;;;;;;1.80;0.70;;;;;;;;;;6262613;22;20083;-91
2022/04/07 09:36:12;;;;;;;5.10;1.23;;;;;;;;;;6262939;22;20023;-91
2022/04/07 09:38:48;;;;;;;5.05;1.30;;;;;;;;;;6263813;22;20034;-90
2022/04/07 09:41:14;;;;;;;0.75;0.50;;;;;;;;;;6263782;22;20019;-91
2022/04/07 09:43:51;;;;;;;4.68;0.95;;;;;;;;;;6264032;22;20101;-91
2022/04/07 09:46:18;;;;;;;5.60;1.10;;;;;;;;;;6287973;22;20429;-90
2022/04/07 09:49:10;;;;;;;1.08;0.50;;;;;;;;;;6263374;22;20019;-90
2022/04/07 09:51:40;;;;;;;2.05;0.68;;;;;;;;;;6259445;22;20015;-89
2022/04/07 09:54:10;;;;;;;5.20;1.02;;;;;;;;;;6263606;22;20019;-91
2022/04/07 09:56:36;;;;;;;4.28;1.13;;;;;;;;;;6263896;22;20028;-90
2022/04/07 09:59:05;;;;;;;4.03;1.30;;;;;;;;;;6262622;22;20015;-91
2022/04/07 10:01:38;;;;;;;2.90;0.70;;;;;;;;;;6265055;22;20019;-96
2022/04/07 10:04:08;;;;;;;3.35;1.15;;;;;;;;;;6295242;22;20068;-93
2022/04/07 10:06:35;;;;;;;6.22;1.33;;;;;;;;;;6267729;22;20015;-92
2022/04/07 10:09:02;;;;;;;4.85;0.65;;;;;;;;;;6265801;22;20018;-92
2022/04/07 10:11:31;;;;;;;3.05;0.80;;;;;;;;;;6265581;22;20069;-91
2022/04/07 10:13:58;;;;;;;7.47;1.83;;;;;;;;;;6267397;22;20015;-95
2022/04/07 10:16:30;;;;;;;7.68;1.58;;;;;;;;;;6267032;22;20015;-92
2022/04/07 10:19:23;;;;;;;7.82;2.10;;;;;;;;;;6294341;22;20022;-92
2022/04/07 10:21:49;;;;;;;6.97;1.23;;;;;;;;;;6266294;22;20015;-91
2022/04/07 10:24:20;;;;;;;7.45;1.60;;;;;;;;;;6265644;22;20464;-92
2022/04/07 10:26:47;;;;;;;4.65;0.93;;;;;;;;;;6265207;22;20500;-91
2022/04/07 10:29:23;;;;;;;3.50;1.13;;;;;;;;;;6264889;22;20022;-92
2022/04/07 10:32:30;;;;;;;3.03;0.98;;;;;;;;;;6265337;22;20015;-92
2022/04/07 10:35:02;;;;;;;3.00;1.42;;;;;;;;;;6172585;23;20024;-90
2022/04/07 10:37:32;;;;;;;5.65;1.27;;;;;;;;;;6251169;22;20051;-92
2022/04/07 10:40:18;;;;;;;0.77;0.52;;;;;;;;;;6264712;22;20065;-91
2022/04/07 10:43:11;;;;;;;1.63;1.20;;;;;;;;;;6263682;22;20512;-91
2022/04/07 10:45:41;;;;;;;4.75;1.38;;;;;;;;;;6232862;22;20016;-91
2022/04/07 10:48:23;;;;;;;5.43;1.40;;;;;;;;;;6264668;22;20015;-91
2022/04/07 10:50:54;;;;;;;6.75;1.40;;;;;;;;;;6265821;22;20349;-91
2022/04/07 10:53:33;;;;;;;7.13;2.08;;;;;;;;;;6265348;22;20067;-92
2022/04/07 10:56:00;;;;;;;5.43;1.27;;;;;;;;;;6265824;22;20436;-92
2022/04/07 10:58:39;;;;;;;7.68;1.13;;;;;;;;;;6264824;22;20011;-92
2022/04/07 11:01:05;;;;;;;4.03;0.90;;;;;;;;;;6265436;22;20015;-91
2022/04/07 11:03:35;;;;;;;9.02;1.38;;;;;;;;;;6265391;22;20090;-91
2022/04/07 11:06:03;;;;;;;5.68;1.95;;;;;;;;;;6264289;22;20050;-91
2022/04/07 11:08:30;;;;;;;5.18;0.73;;;;;;;;;;6264476;22;20021;-90
2022/04/07 11:10:57;;;;;;;6.45;1.20;;;;;;;;;;6265843;22;20039;-91
2022/04/07 11:13:45;;;;;;;6.53;1.00;;;;;;;;;;6265294;22;20026;-92
2022/04/07 11:16:24;;;;;;;6.68;1.50;;;;;;;;;;6265135;22;20030;-91
2022/04/07 11:19:02;;;;;;;3.55;0.85;;;;;;;;;;6264458;22;20357;-91
2022/04/07 11:21:43;;;;;;;3.83;1.25;;;;;;;;;;6264274;22;20418;-91
2022/04/07 11:24:16;;;;;;;4.45;1.20;;;;;;;;;;6291158;22;20011;-91
2022/04/07 11:26:45;;;;;;;9.30;2.08;;;;;;;;;;6265178;22;20011;-91
2022/04/07 11:29:12;;;;;;;11.07;1.05;;;;;;;;;;6265053;22;20089;-92
2022/04/07 11:31:48;;;;;;;12.02;1.88;;;;;;;;;;6264718;22;20015;-95
2022/04/07 11:34:42;;;;;;;7.63;1.92;;;;;;;;;;6264152;22;20042;-93
2022/04/07 11:37:16;;;;;;;9.75;1.85;;;;;;;;;;6262675;22;20352;-90
2022/04/07 11:39:45;;;;;;;6.00;1.40;;;;;;;;;;6261947;22;20022;-90
2022/04/07 11:42:11;;;;;;;8.77;2.17;;;;;;;;;;6263524;22;20014;-91
2022/04/07 11:44:37;;;;;;;6.85;2.17;;;;;;;;;;6264419;22;20042;-89
2022/04/07 11:47:03;;;;;;;5.05;1.80;;;;;;;;;;6258977;22;20015;-86
2022/04/07 11:49:37;;;;;;;7.90;1.38;;;;;;;;;;6256636;22;20011;-91
2022/04/07 11:52:03;;;;;;;6.97;1.35;;;;;;;;;;6264984;22;20026;-90
2022/04/07 11:54:34;;;;;;;7.78;1.27;;;;;;;;;;6263457;22;20019;-91
2022/04/07 11:57:08;;;;;;;7.65;1.75;;;;;;;;;;6262069;22;20067;-92
2022/04/07 11:59:35;;;;;;;4.15;1.40;;;;;;;;;;6265099;22;20026;-91
2022/04/07 12:02:01;;;;;;;6.43;1.23;;;;;;;;;;6262782;22;20015;-91
2022/04/07 12:04:40;;;;;;;5.63;1.55;;;;;;;;;;6265996;22;20453;-91
2022/04/07 12:07:12;;;;;;;6.45;1.83;;;;;;;;;;6265936;22;20022;-95
2022/04/07 12:09:38;;;;;;;5.18;1.48;;;;;;;;;;6269291;22;20017;-94
2022/04/07 12:12:07;;;;;;;5.53;1.30;;;;;;;;;;6241237;22;20015;-92
2022/04/07 12:14:44;;;;;;;7.93;1.42;;;;;;;;;;6268710;22;20050;-95
2022/04/07 12:17:14;;;;;;;4.57;0.93;;;;;;;;;;6269789;22;20015;-96
2022/04/07 12:19:49;;;;;;;6.00;1.40;;;;;;;;;;6272590;22;20040;-93
2022/04/07 12:22:31;;;;;;;5.15;1.92;;;;;;;;;;6269369;22;20128;-95
2022/04/07 12:24:59;;;;;;;5.20;1.05;;;;;;;;;;6268701;22;20066;-92
2022/04/07 12:27:30;;;;;;;5.53;1.45;;;;;;;;;;6265686;22;20011;-91
2022/04/07 12:29:57;;;;;;;4.85;1.17;;;;;;;;;;6265998;22;20072;-90
2022/04/07 12:32:27;;;;;;;7.72;1.33;;;;;;;;;;6269610;22;20429;-92
2022/04/07 12:34:54;;;;;;;12.90;1.95;;;;;;;;;;6268145;22;20049;-94
2022/04/07 12:37:30;;;;;;;4.93;1.13;;;;;;;;;;6264677;22;20038;-96
2022/04/07 12:40:04;;;;;;;3.42;1.13;;;;;;;;;;6264414;22;20337;-89
2022/04/07 12:42:34;;;;;;;6.78;1.15;;;;;;;;;;6261070;22;20068;-91
2022/04/07 12:45:07;;;;;;;4.47;1.13;;;;;;;;;;6264047;22;20019;-93
2022/04/07 12:47:34;;;;;;;4.38;1.45;;;;;;;;;;6266476;22;20016;-90
2022/04/07 12:50:05;;;;;;;6.75;1.42;;;;;;;;;;6266455;22;20017;-92
2022/04/07 12:52:35;;;;;;;4.93;1.40;;;;;;;;;;6262482;22;20011;-90
2022/04/07 12:55:02;;;;;;;4.22;1.23;;;;;;;;;;6262032;22;20046;-90
2022/04/07 12:57:32;;;;;;;4.13;1.33;;;;;;;;;;6262028;22;20050;-90
2022/04/07 12:59:59;;;;;;;4.32;1.33;;;;;;;;;;6262092;22;20026;-90
2022/04/07 13:02:26;;;;;;;1.58;0.70;;;;;;;;;;6263018;22;20019;-90
2022/04/07 13:04:53;;;;;;;2.65;1.13;;;;;;;;;;6262198;22;20019;-90
2022/04/07 13:07:20;;;;;;;5.75;0.82;;;;;;;;;;6263016;22;20072;-90
2022/04/07 13:09:47;;;;;;;2.83;1.05;;;;;;;;;;6262947;22;20057;-90
2022/04/07 13:12:13;;;;;;;4.07;1.23;;;;;;;;;;6261935;22;20012;-90
2022/04/07 13:14:40;;;;;;;7.93;1.33;;;;;;;;;;6262614;22;20022;-89
2022/04/07 13:17:09;;;;;;;5.18;1.25;;;;;;;;;;6262106;22;20448;-90
2022/04/07 13:19:35;;;;;;;1.23;0.47;;;;;;;;;;6262337;22;20026;-90
2022/04/07 13:22:02;;;;;;;6.30;1.23;;;;;;;;;;6261729;22;20098;-88
2022/04/07 13:24:28;;;;;;;3.58;1.00;;;;;;;;;;6261297;22;20019;-89
2022/04/07 13:26:54;;;;;;;3.10;1.40;;;;;;;;;;6261514;22;20030;-89
2022/04/07 13:29:21;;;;;;;2.35;1.52;;;;;;;;;;6285677;22;20011;-88
2022/04/07 13:31:47;;;;;;;0.95;0.68;;;;;;;;;;6258229;22;20015;-88
2022/04/07 13:34:14;;;;;;;2.08;0.60;;;;;;;;;;6258117;22;20051;-87
2022/04/07 13:36:40;;;;;;;2.75;0.93;;;;;;;;;;6258686;22;20027;-88
2022/04/07 13:39:06;;;;;;;1.00;0.57;;;;;;;;;;6283769;22;20021;-89
2022/04/07 13:41:32;;;;;;;6.25;1.27;;;;;;;;;;6258378;22;20315;-88
2022/04/07 13:43:58;;;;;;;2.42;0.88;;;;;;;;;;6257999;22;20102;-88
2022/04/07 13:46:24;;;;;;;4.75;1.40;;;;;;;;;;6257963;22;20022;-88
2022/04/07 13:48:50;;;;;;;3.03;1.05;;;;;;;;;;6258622;22;20356;-89
2022/04/07 13:51:19;;;;;;;5.90;1.80;;;;;;;;;;6259424;22;20016;-89
2022/04/07 13:53:46;;;;;;;4.43;1.20;;;;;;;;;;6258742;22;20045;-89
2022/04/07 13:56:12;;;;;;;5.88;1.23;;;;;;;;;;6258740;22;20019;-88
2022/04/07 13:58:38;;;;;;;8.32;1.33;;;;;;;;;;6258386;22;20051;-88
2022/04/07 14:01:04;;;;;;;4.78;1.25;;;;;;;;;;6258095;22;20019;-88
2022/04/07 14:03:30;;;;;;;11.45;1.60;;;;;;;;;;6258075;22;20098;-89
2022/04/07 14:05:58;;;;;;;2.55;1.20;;;;;;;;;;6258241;22;20073;-87
2022/04/07 14:08:28;;;;;;;6.88;1.08;;;;;;;;;;6258535;22;20015;-88
2022/04/07 14:10:55;;;;;;;5.35;1.52;;;;;;;;;;6284144;22;20016;-88
2022/04/07 14:13:23;;;;;;;1.05;0.73;;;;;;;;;;6260156;22;20058;-88
2022/04/07 14:15:50;;;;;;;1.63;0.65;;;;;;;;;;6259469;22;20094;-88
2022/04/07 14:18:16;;;;;;;3.70;1.13;;;;;;;;;;6259564;22;20375;-88
2022/04/07 14:20:43;;;;;;;1.17;0.75;;;;;;;;;;6261103;22;20090;-89
2022/04/07 14:23:12;;;;;;;3.25;2.05;;;;;;;;;;6259920;22;20018;-88
2022/04/07 14:25:38;;;;;;;8.07;1.33;;;;;;;;;;6259962;22;20094;-88
2022/04/07 14:28:05;;;;;;;9.93;1.20;;;;;;;;;;6259482;22;20011;-89
2022/04/07 14:30:31;;;;;;;10.00;2.00;;;;;;;;;;6259775;22;20097;-88
2022/04/07 14:32:57;;;;;;;16.23;1.70;;;;;;;;;;6259706;22;20015;-88
2022/04/07 14:35:23;;;;;;;6.75;1.38;;;;;;;;;;6258387;22;20090;-88
2022/04/07 14:37:52;;;;;;;10.30;1.52;;;;;;;;;;6258443;22;20097;-88
2022/04/07 14:40:18;;;;;;;6.97;1.65;;;;;;;;;;6258737;22;20050;-88
2022/04/07 14:42:44;;;;;;;4.65;1.65;;;;;;;;;;6259433;22;20097;-89
2022/04/07 14:45:10;;;;;;;6.53;1.55;;;;;;;;;;6258910;22;20042;-88
2022/04/07 14:47:37;;;;;;;5.43;1.45;;;;;;;;;;6257454;22;20441;-88
2022/04/07 14:50:03;;;;;;;8.50;1.67;;;;;;;;;;6259154;22;20015;-88
2022/04/07 14:52:29;;;;;;;8.93;2.22;;;;;;;;;;6259841;22;20022;-88